ローマ/フィウミチーノ の空港の天気 - METARとTAF

ローマ・レオナルド・ダ・ビンチ国際空港 ( LIRF / FCO ) - イタリア ローマ
飛行場実況気象(Metar)
観測時間07/20 13:20 CEST (07/20 11:20 UTC)
風向・風速西南西 6m/s
視程10km以上
天気現象
なし
気温28℃
湿度62%
気圧1019hPa
METARLIRF 201120Z 24011KT CAVOK 28/20 Q1019 NOSIG
過去の天気等 Google飛行場航空写真 Wunderground天気予報

過去48時間のMETAR

飛行場予報(TAF)
発表時間: 7/20 13:00 CEST (7/20 11:00 UTC)
予報対象時間: 20日14時 CEST ~ 21日20時 CEST
風向・風速西南西 6m/s
視程10km以上
なし
20日20時 CEST ~ 20日22時 CEST に徐々に
風向・風速不定 3m/s
21日10時 CEST ~ 21日13時 CEST に徐々に
風向・風速西 6m/s
TAF LIRF 201100Z 2012/2118 25012 CAVOK
BECMG 2018/2020 VRB05KT
BECMG 2108/2111 26012KT